createdAt,value
2017-05-02T00:00:13.197Z,19.86
2017-05-02T00:01:18.750Z,19.70
2017-05-02T00:02:12.517Z,19.69
2017-05-02T00:03:12.652Z,19.66
2017-05-02T00:04:11.756Z,19.65
2017-05-02T00:05:11.846Z,19.64
2017-05-02T00:06:12.877Z,19.65
2017-05-02T00:07:12.584Z,19.65
2017-05-02T00:08:10.479Z,19.64
2017-05-02T00:09:12.774Z,19.64
2017-05-02T00:10:12.843Z,19.64
2017-05-02T00:11:12.608Z,19.64
2017-05-02T00:12:12.419Z,19.64
2017-05-02T00:13:12.723Z,19.64
2017-05-02T00:14:12.577Z,19.67
2017-05-02T00:15:12.701Z,19.63
2017-05-02T00:16:12.440Z,19.63
2017-05-02T00:17:13.167Z,19.70
2017-05-02T00:18:13.315Z,19.63
2017-05-02T00:19:12.402Z,19.64
2017-05-02T00:20:12.665Z,19.63
2017-05-02T00:21:12.473Z,19.64
2017-05-02T00:22:12.616Z,19.63
2017-05-02T00:23:12.220Z,19.66
2017-05-02T00:24:12.402Z,19.63
2017-05-02T00:25:10.942Z,19.63
2017-05-02T00:26:12.648Z,19.64
2017-05-02T00:27:11.704Z,19.63
2017-05-02T00:28:12.746Z,19.63
2017-05-02T00:29:12.584Z,19.66
2017-05-02T00:30:11.607Z,19.64
2017-05-02T00:31:11.688Z,19.63
2017-05-02T00:32:12.422Z,19.71
2017-05-02T00:33:12.436Z,19.63
2017-05-02T00:34:12.587Z,19.63
2017-05-02T00:35:11.687Z,19.64
2017-05-02T00:36:12.383Z,19.64
2017-05-02T00:37:12.418Z,20.15
2017-05-02T00:38:12.626Z,20.20
2017-05-02T00:39:14.656Z,20.22
2017-05-02T00:40:12.210Z,20.23
2017-05-02T00:41:13.027Z,20.24
2017-05-02T00:42:12.557Z,20.24
2017-05-02T00:43:13.077Z,20.24
2017-05-02T00:44:12.438Z,20.25
2017-05-02T00:45:11.491Z,20.25
2017-05-02T00:46:13.372Z,20.25
2017-05-02T00:47:12.294Z,20.25
2017-05-02T00:48:12.953Z,19.78
2017-05-02T00:49:12.747Z,19.67
2017-05-02T00:50:12.572Z,19.64
2017-05-02T00:51:12.220Z,19.67
2017-05-02T00:52:12.247Z,19.63
2017-05-02T00:53:13.692Z,19.62
2017-05-02T00:54:13.489Z,19.62
2017-05-02T00:55:14.852Z,19.61
2017-05-02T00:56:11.941Z,19.61
2017-05-02T00:57:13.345Z,19.64
2017-05-02T00:58:12.618Z,19.62
2017-05-02T00:59:13.626Z,19.61
2017-05-02T01:00:12.610Z,19.61
2017-05-02T01:01:11.756Z,19.62
2017-05-02T01:02:12.621Z,19.61
2017-05-02T01:03:12.220Z,19.64
2017-05-02T01:04:14.057Z,19.61
2017-05-02T01:05:13.826Z,19.61
2017-05-02T01:06:11.880Z,19.61
2017-05-02T01:07:12.980Z,19.61
2017-05-02T01:08:12.664Z,19.64
2017-05-02T01:09:12.367Z,19.60
2017-05-02T01:10:12.931Z,19.60
2017-05-02T01:11:12.660Z,19.61
2017-05-02T01:12:12.418Z,19.62
2017-05-02T01:13:13.351Z,19.60
2017-05-02T01:14:12.346Z,19.61
2017-05-02T01:15:12.409Z,19.61
2017-05-02T01:16:15.057Z,19.60
2017-05-02T01:17:13.215Z,19.61
2017-05-02T01:18:13.227Z,19.59
2017-05-02T01:19:13.412Z,19.58
2017-05-02T01:20:12.635Z,19.60
2017-05-02T01:21:13.358Z,19.60
2017-05-02T01:22:14.046Z,19.60
2017-05-02T01:23:12.902Z,19.60
2017-05-02T01:24:12.723Z,19.61
2017-05-02T01:25:11.800Z,19.60
2017-05-02T01:26:09.952Z,19.60
2017-05-02T01:27:10.966Z,19.59
2017-05-02T01:28:12.545Z,19.60
2017-05-02T01:29:13.543Z,19.60
2017-05-02T01:30:13.241Z,19.60
2017-05-02T01:31:12.389Z,19.59
2017-05-02T01:32:13.342Z,19.60
2017-05-02T01:33:13.025Z,19.62
2017-05-02T01:34:12.311Z,19.60
2017-05-02T01:35:12.879Z,19.65
2017-05-02T01:36:12.804Z,19.60
2017-05-02T01:37:12.327Z,19.63
2017-05-02T01:38:14.059Z,19.59
2017-05-02T01:39:12.710Z,19.64
2017-05-02T01:40:12.362Z,19.67
2017-05-02T01:41:13.119Z,20.11
2017-05-02T01:42:12.793Z,20.17
2017-05-02T01:43:12.153Z,20.20
2017-05-02T01:44:12.409Z,20.20
2017-05-02T01:45:12.614Z,19.68
2017-05-02T01:46:12.407Z,19.63
2017-05-02T01:47:10.962Z,19.61
2017-05-02T01:48:12.827Z,20.14
2017-05-02T01:49:13.053Z,20.17
2017-05-02T01:50:12.302Z,19.67
2017-05-02T01:51:13.360Z,19.63
2017-05-02T01:52:12.408Z,19.61
2017-05-02T01:53:12.570Z,19.60
2017-05-02T01:54:10.530Z,19.59
2017-05-02T01:55:12.963Z,20.11
2017-05-02T01:56:12.431Z,20.16
2017-05-02T01:57:13.096Z,19.65
2017-05-02T01:58:12.735Z,19.61
2017-05-02T01:59:11.821Z,19.60
2017-05-02T02:00:13.357Z,19.60
2017-05-02T02:01:12.988Z,19.59
2017-05-02T02:02:09.457Z,19.58
2017-05-02T02:03:12.975Z,19.57
2017-05-02T02:04:11.111Z,19.57
2017-05-02T02:05:13.846Z,20.10
2017-05-02T02:06:11.945Z,20.15
2017-05-02T02:07:14.874Z,19.64
2017-05-02T02:08:12.586Z,19.60
2017-05-02T02:09:12.281Z,19.65
2017-05-02T02:10:13.128Z,19.64
2017-05-02T02:11:13.800Z,19.58
2017-05-02T02:12:12.399Z,19.57
2017-05-02T02:13:13.017Z,19.57
2017-05-02T02:14:12.394Z,19.58
2017-05-02T02:15:14.201Z,19.56
2017-05-02T02:16:12.879Z,19.62
2017-05-02T02:17:13.559Z,19.56
2017-05-02T02:18:12.277Z,19.57
2017-05-02T02:19:12.869Z,19.57
2017-05-02T02:20:12.002Z,19.57
2017-05-02T02:21:12.123Z,19.56
2017-05-02T02:22:12.765Z,19.56
2017-05-02T02:23:12.474Z,19.57
2017-05-02T02:24:12.557Z,19.58
2017-05-02T02:25:12.670Z,19.56
2017-05-02T02:26:12.691Z,19.56
2017-05-02T02:27:10.493Z,19.56
2017-05-02T02:28:12.554Z,19.56
2017-05-02T02:29:12.261Z,19.56
2017-05-02T02:30:12.396Z,19.56
2017-05-02T02:31:13.109Z,19.64
2017-05-02T02:32:12.396Z,19.56
2017-05-02T02:33:13.105Z,19.56
2017-05-02T02:34:12.970Z,19.63
2017-05-02T02:35:12.612Z,19.55
2017-05-02T02:36:14.487Z,19.56
2017-05-02T02:37:13.230Z,19.55
2017-05-02T02:38:14.062Z,19.55
2017-05-02T02:39:12.809Z,19.56
2017-05-02T02:40:12.373Z,19.59
2017-05-02T02:41:13.229Z,19.56
2017-05-02T02:42:12.912Z,19.62
2017-05-02T02:43:10.070Z,19.54
2017-05-02T02:44:12.424Z,19.55
2017-05-02T02:45:13.370Z,19.55
2017-05-02T02:46:13.458Z,19.55
2017-05-02T02:47:12.630Z,19.56
2017-05-02T02:48:13.521Z,19.55
2017-05-02T02:49:12.478Z,19.56
2017-05-02T02:50:12.629Z,19.55
2017-05-02T02:51:12.382Z,19.54
2017-05-02T02:52:13.056Z,19.58
2017-05-02T02:53:12.710Z,19.58
2017-05-02T02:54:11.889Z,19.55
2017-05-02T02:55:12.574Z,19.55
2017-05-02T02:56:11.716Z,19.55
2017-05-02T02:57:12.550Z,19.55
2017-05-02T02:58:12.592Z,19.53
2017-05-02T02:59:13.379Z,19.55
2017-05-02T03:00:12.667Z,19.55
2017-05-02T03:01:12.251Z,19.57
2017-05-02T03:02:13.021Z,20.08
2017-05-02T03:03:12.357Z,20.14
2017-05-02T03:04:13.002Z,19.64
2017-05-02T03:05:13.433Z,19.58
2017-05-02T03:06:13.191Z,19.56
2017-05-02T03:07:13.609Z,19.56
2017-05-02T03:08:11.937Z,19.55
2017-05-02T03:09:13.777Z,19.59
2017-05-02T03:10:10.744Z,19.54
2017-05-02T03:11:12.814Z,19.55
2017-05-02T03:12:12.518Z,19.59
2017-05-02T03:13:12.797Z,19.55
2017-05-02T03:14:12.430Z,19.58
2017-05-02T03:15:11.315Z,19.54
2017-05-02T03:16:13.191Z,19.54
2017-05-02T03:17:12.382Z,19.54
2017-05-02T03:18:13.177Z,19.54
2017-05-02T03:19:12.564Z,19.54
2017-05-02T03:20:12.220Z,19.57
2017-05-02T03:21:12.623Z,19.59
2017-05-02T03:22:12.337Z,19.54
2017-05-02T03:23:12.788Z,19.59
2017-05-02T03:24:12.174Z,19.54
2017-05-02T03:25:12.825Z,19.62
2017-05-02T03:26:13.072Z,19.54
2017-05-02T03:27:12.875Z,19.54
2017-05-02T03:28:12.147Z,19.54
2017-05-02T03:29:11.096Z,19.54
2017-05-02T03:30:13.044Z,20.07
2017-05-02T03:31:12.689Z,20.11
2017-05-02T03:32:14.351Z,20.12
2017-05-02T03:33:13.204Z,19.62
2017-05-02T03:34:12.356Z,19.57
2017-05-02T03:35:13.020Z,19.60
2017-05-02T03:36:10.756Z,19.55
2017-05-02T03:37:12.226Z,19.55
2017-05-02T03:38:13.011Z,19.54
2017-05-02T03:39:12.194Z,19.54
2017-05-02T03:40:12.255Z,19.54
2017-05-02T03:41:12.991Z,19.54
2017-05-02T03:42:13.822Z,19.54
2017-05-02T03:43:10.768Z,19.53
2017-05-02T03:44:12.578Z,20.08
2017-05-02T03:45:12.383Z,20.12
2017-05-02T03:46:15.407Z,20.15
2017-05-02T03:47:11.708Z,20.15
2017-05-02T03:48:12.399Z,19.62
2017-05-02T03:49:12.633Z,19.58
2017-05-02T03:50:13.504Z,19.55
2017-05-02T03:51:14.353Z,19.54
2017-05-02T03:52:13.176Z,19.61
2017-05-02T03:53:12.282Z,19.54
2017-05-02T03:54:13.080Z,19.54
2017-05-02T03:55:13.872Z,19.54
2017-05-02T03:56:13.710Z,19.53
2017-05-02T03:57:11.780Z,19.54
2017-05-02T03:58:11.964Z,19.53
2017-05-02T03:59:12.188Z,19.53
2017-05-02T04:00:12.378Z,19.53
2017-05-02T04:01:12.694Z,19.53
2017-05-02T04:02:11.737Z,19.54
2017-05-02T04:03:13.762Z,19.52
2017-05-02T04:04:12.583Z,19.53
2017-05-02T04:05:09.078Z,19.52
2017-05-02T04:06:12.379Z,19.53
2017-05-02T04:07:12.676Z,19.53
2017-05-02T04:08:12.732Z,19.53
2017-05-02T04:09:12.471Z,19.52
2017-05-02T04:10:13.188Z,19.60
2017-05-02T04:11:12.438Z,19.52
2017-05-02T04:12:12.490Z,19.52
2017-05-02T04:13:13.519Z,19.52
2017-05-02T04:14:15.121Z,19.53
2017-05-02T04:15:12.212Z,19.52
2017-05-02T04:16:14.170Z,19.53
2017-05-02T04:17:13.064Z,19.52
2017-05-02T04:18:13.099Z,19.52
2017-05-02T04:19:09.961Z,19.51
2017-05-02T04:20:13.204Z,19.52
2017-05-02T04:21:12.820Z,19.56
2017-05-02T04:22:12.812Z,19.53
2017-05-02T04:23:12.015Z,19.52
2017-05-02T04:24:14.083Z,19.52
2017-05-02T04:25:15.750Z,19.58
2017-05-02T04:26:12.388Z,19.58
2017-05-02T04:27:13.042Z,19.58
2017-05-02T04:28:12.853Z,19.56
2017-05-02T04:29:11.864Z,19.52
2017-05-02T04:30:13.843Z,19.52
2017-05-02T04:31:12.185Z,19.52
2017-05-02T04:32:14.241Z,19.52
2017-05-02T04:33:12.982Z,19.55
2017-05-02T04:34:11.072Z,19.52
2017-05-02T04:35:13.174Z,19.51
2017-05-02T04:36:13.052Z,19.52
2017-05-02T04:37:13.758Z,19.51
2017-05-02T04:38:12.671Z,19.58
2017-05-02T04:39:13.473Z,19.52
2017-05-02T04:40:13.246Z,19.52
2017-05-02T04:41:12.457Z,19.52
2017-05-02T04:42:12.833Z,19.52
2017-05-02T04:43:13.840Z,19.51
2017-05-02T04:44:12.704Z,19.57
2017-05-02T04:45:11.622Z,19.51
2017-05-02T04:46:11.729Z,19.52
2017-05-02T04:47:11.885Z,19.50
2017-05-02T04:48:12.137Z,19.50
2017-05-02T04:49:12.215Z,19.51
2017-05-02T04:50:12.412Z,19.51
2017-05-02T04:51:13.079Z,19.51
2017-05-02T04:52:12.749Z,19.52
2017-05-02T04:53:12.810Z,19.51
2017-05-02T04:54:11.993Z,19.51
2017-05-02T04:55:12.185Z,19.51
2017-05-02T04:56:12.392Z,19.51
2017-05-02T04:57:12.453Z,19.51
2017-05-02T04:58:13.123Z,19.58
2017-05-02T04:59:12.219Z,19.51
2017-05-02T05:00:13.208Z,19.51
2017-05-02T05:01:12.236Z,19.51
2017-05-02T05:02:12.906Z,19.50
2017-05-02T05:03:11.833Z,19.50
2017-05-02T05:04:13.822Z,19.50
2017-05-02T05:05:12.214Z,19.54
2017-05-02T05:06:13.084Z,19.50
2017-05-02T05:07:10.549Z,19.50
2017-05-02T05:08:12.620Z,19.50
2017-05-02T05:09:12.199Z,19.54
2017-05-02T05:10:12.385Z,19.50
2017-05-02T05:11:12.978Z,19.50
2017-05-02T05:12:12.940Z,19.52
2017-05-02T05:13:13.052Z,19.51
2017-05-02T05:14:10.915Z,19.49
2017-05-02T05:15:12.826Z,20.02
2017-05-02T05:16:11.791Z,19.56
2017-05-02T05:17:12.573Z,19.53
2017-05-02T05:18:10.561Z,19.51
2017-05-02T05:19:13.234Z,19.51
2017-05-02T05:20:13.055Z,19.50
2017-05-02T05:21:17.100Z,19.50
2017-05-02T05:22:12.986Z,19.50
2017-05-02T05:23:12.777Z,19.51
2017-05-02T05:24:12.149Z,19.51
2017-05-02T05:25:13.170Z,19.50
2017-05-02T05:26:12.230Z,19.50
2017-05-02T05:27:12.910Z,19.50
2017-05-02T05:28:10.713Z,19.50
2017-05-02T05:29:12.626Z,19.50
2017-05-02T05:30:12.477Z,19.53
2017-05-02T05:31:13.338Z,19.50
2017-05-02T05:32:11.351Z,19.50
2017-05-02T05:33:12.267Z,19.50
2017-05-02T05:34:13.077Z,19.52
2017-05-02T05:35:13.002Z,19.49
2017-05-02T05:36:12.564Z,19.52
2017-05-02T05:37:12.218Z,20.02
2017-05-02T05:38:12.290Z,20.07
2017-05-02T05:39:11.226Z,20.10
2017-05-02T05:40:13.138Z,20.10
2017-05-02T05:41:12.394Z,20.11
2017-05-02T05:42:11.355Z,20.12
2017-05-02T05:43:14.717Z,20.11
2017-05-02T05:44:12.324Z,20.11
2017-05-02T05:45:13.576Z,20.11
2017-05-02T05:46:11.874Z,19.76
2017-05-02T05:47:11.933Z,19.58
2017-05-02T05:48:12.048Z,19.53
2017-05-02T05:49:13.864Z,19.51
2017-05-02T05:50:12.190Z,19.51
2017-05-02T05:51:13.998Z,19.50
2017-05-02T05:52:12.091Z,19.50
2017-05-02T05:53:09.676Z,19.49
2017-05-02T05:54:12.616Z,19.50
2017-05-02T05:55:12.855Z,19.49
2017-05-02T05:56:12.483Z,19.55
2017-05-02T05:57:13.435Z,19.50
2017-05-02T05:58:13.568Z,19.49
2017-05-02T05:59:15.548Z,19.48
2017-05-02T06:00:12.327Z,19.48
2017-05-02T06:01:14.060Z,19.47
2017-05-02T06:02:12.183Z,19.49
2017-05-02T06:03:13.409Z,19.50
2017-05-02T06:04:12.450Z,19.50
2017-05-02T06:05:13.131Z,19.56
2017-05-02T06:06:13.359Z,19.50
2017-05-02T06:07:12.507Z,19.50
2017-05-02T06:08:12.535Z,19.50
2017-05-02T06:09:11.702Z,19.50
2017-05-02T06:10:11.600Z,19.50
2017-05-02T06:11:13.416Z,19.49
2017-05-02T06:12:12.608Z,19.49
2017-05-02T06:13:12.844Z,19.50
2017-05-02T06:14:11.839Z,19.50
2017-05-02T06:15:12.819Z,19.52
2017-05-02T06:16:10.520Z,19.49
2017-05-02T06:17:12.077Z,19.50
2017-05-02T06:18:11.894Z,19.49
2017-05-02T06:19:10.683Z,19.48
2017-05-02T06:20:12.000Z,19.49
2017-05-02T06:21:12.892Z,19.50
2017-05-02T06:22:10.462Z,19.49
2017-05-02T06:23:12.525Z,20.00
2017-05-02T06:24:13.637Z,20.07
2017-05-02T06:25:11.816Z,20.09
2017-05-02T06:26:12.035Z,20.10
2017-05-02T06:27:12.419Z,20.11
2017-05-02T06:28:15.160Z,20.10
2017-05-02T06:29:12.851Z,20.10
2017-05-02T06:30:12.825Z,20.11
2017-05-02T06:31:12.635Z,20.12
2017-05-02T06:32:11.811Z,19.81
2017-05-02T06:33:12.773Z,19.58
2017-05-02T06:34:12.608Z,19.55
2017-05-02T06:35:11.640Z,19.51
2017-05-02T06:36:12.810Z,19.55
2017-05-02T06:37:11.831Z,19.51
2017-05-02T06:38:12.157Z,19.51
2017-05-02T06:39:13.296Z,19.50
2017-05-02T06:40:12.485Z,19.50
2017-05-02T06:41:12.568Z,19.50
2017-05-02T06:42:12.215Z,19.54
2017-05-02T06:43:12.438Z,19.49
2017-05-02T06:44:12.806Z,19.50
2017-05-02T06:45:10.503Z,19.49
2017-05-02T06:46:12.507Z,19.49
2017-05-02T06:47:12.587Z,19.50
2017-05-02T06:48:11.846Z,19.49
2017-05-02T06:49:11.748Z,19.49
2017-05-02T06:50:14.804Z,19.49
2017-05-02T06:51:12.539Z,19.51
2017-05-02T06:52:11.768Z,19.48
2017-05-02T06:53:11.883Z,19.49
2017-05-02T06:54:12.848Z,19.50
2017-05-02T06:55:11.953Z,19.50
2017-05-02T06:56:12.222Z,19.48
2017-05-02T06:57:12.397Z,19.50
2017-05-02T06:58:11.187Z,19.51
2017-05-02T06:59:11.580Z,19.53
2017-05-02T07:00:11.820Z,19.56
2017-05-02T07:01:12.639Z,19.58
2017-05-02T07:02:13.542Z,19.59
2017-05-02T07:03:12.495Z,19.62
2017-05-02T07:04:12.621Z,19.64
2017-05-02T07:05:12.329Z,19.66
2017-05-02T07:06:12.572Z,19.67
2017-05-02T07:07:12.183Z,19.69
2017-05-02T07:08:12.912Z,19.71
2017-05-02T07:09:12.105Z,19.72
2017-05-02T07:10:12.276Z,19.73
2017-05-02T07:11:12.303Z,19.74
2017-05-02T07:12:14.205Z,19.74
2017-05-02T07:13:12.237Z,19.75
2017-05-02T07:14:13.063Z,19.76
2017-05-02T07:15:12.128Z,19.76
2017-05-02T07:16:12.693Z,19.80
2017-05-02T07:17:09.837Z,19.76
2017-05-02T07:18:10.185Z,20.29
2017-05-02T07:19:12.396Z,19.83
2017-05-02T07:20:12.564Z,19.81
2017-05-02T07:21:09.626Z,19.79
2017-05-02T07:22:12.170Z,19.80
2017-05-02T07:23:12.665Z,19.84
2017-05-02T07:24:11.671Z,19.80
2017-05-02T07:25:11.587Z,19.81
2017-05-02T07:26:12.393Z,19.80
2017-05-02T07:27:12.534Z,19.81
2017-05-02T07:28:12.839Z,19.82
2017-05-02T07:29:11.898Z,19.82
2017-05-02T07:30:11.903Z,19.82
2017-05-02T07:31:12.268Z,19.83
2017-05-02T07:32:13.085Z,19.82
2017-05-02T07:33:13.420Z,19.83
2017-05-02T07:34:12.678Z,19.83
2017-05-02T07:35:12.968Z,19.83
2017-05-02T07:36:12.817Z,19.84
2017-05-02T07:37:12.116Z,19.84
2017-05-02T07:38:10.478Z,19.83
2017-05-02T07:39:11.871Z,19.84
2017-05-02T07:40:12.790Z,19.85
2017-05-02T07:41:11.851Z,19.85
2017-05-02T07:42:12.229Z,19.86
2017-05-02T07:43:12.539Z,19.85
2017-05-02T07:44:13.497Z,19.86
2017-05-02T07:45:14.726Z,19.85
2017-05-02T07:46:12.401Z,19.89
2017-05-02T07:47:11.036Z,19.84
2017-05-02T07:48:13.429Z,20.38
2017-05-02T07:49:13.155Z,20.44
2017-05-02T07:50:13.052Z,20.46
2017-05-02T07:51:13.303Z,20.47
2017-05-02T07:52:12.852Z,20.49
2017-05-02T07:53:11.969Z,20.50
2017-05-02T07:54:13.016Z,19.99
2017-05-02T07:55:13.157Z,19.93
2017-05-02T07:56:13.349Z,19.91
2017-05-02T07:57:13.148Z,19.90
2017-05-02T07:58:12.335Z,20.43
2017-05-02T07:59:12.833Z,20.47
2017-05-02T08:00:12.756Z,20.50
2017-05-02T08:01:11.847Z,20.51
2017-05-02T08:02:13.585Z,20.52
2017-05-02T08:03:11.815Z,20.53
2017-05-02T08:04:12.004Z,20.54
2017-05-02T08:05:12.264Z,20.50
2017-05-02T08:06:14.026Z,20.55
2017-05-02T08:07:12.572Z,20.55
2017-05-02T08:08:13.439Z,20.54
2017-05-02T08:09:13.333Z,20.55
2017-05-02T08:10:12.774Z,20.55
2017-05-02T08:11:12.869Z,20.03
2017-05-02T08:12:12.751Z,19.98
2017-05-02T08:13:12.613Z,19.98
2017-05-02T08:14:12.314Z,20.00
2017-05-02T08:15:12.719Z,19.95
2017-05-02T08:16:13.718Z,19.93
2017-05-02T08:17:14.676Z,19.92
2017-05-02T08:18:12.438Z,19.92
2017-05-02T08:19:12.735Z,19.92
2017-05-02T08:20:12.466Z,19.94
2017-05-02T08:21:13.446Z,19.92
2017-05-02T08:22:12.574Z,19.93
2017-05-02T08:23:12.427Z,19.92
2017-05-02T08:24:12.899Z,19.92
2017-05-02T08:25:09.916Z,19.92
2017-05-02T08:26:13.190Z,19.92
2017-05-02T08:27:14.085Z,19.92
2017-05-02T08:28:12.044Z,19.92
2017-05-02T08:29:12.916Z,19.93
2017-05-02T08:30:12.615Z,19.92
2017-05-02T08:31:12.449Z,19.81
2017-05-02T08:32:10.562Z,19.26
2017-05-02T08:33:11.901Z,19.39
2017-05-02T08:34:15.584Z,18.82
2017-05-02T08:35:12.208Z,18.72
2017-05-02T08:36:13.928Z,19.00
2017-05-02T08:37:12.597Z,19.08
2017-05-02T08:38:11.652Z,19.20
2017-05-02T08:39:14.700Z,19.32
2017-05-02T08:40:13.381Z,19.43
2017-05-02T08:41:14.074Z,19.52
2017-05-02T08:42:13.694Z,19.07
2017-05-02T08:43:12.639Z,19.11
2017-05-02T08:44:13.600Z,19.16
2017-05-02T08:45:12.230Z,19.21
2017-05-02T08:46:13.421Z,19.26
2017-05-02T08:47:09.808Z,19.28
2017-05-02T08:48:12.431Z,19.87
2017-05-02T08:49:12.790Z,19.95
2017-05-02T08:50:11.959Z,19.47
2017-05-02T08:51:12.859Z,19.46
2017-05-02T08:52:12.496Z,19.51
2017-05-02T08:53:12.745Z,19.48
2017-05-02T08:54:15.591Z,19.50
2017-05-02T08:55:13.396Z,19.50
2017-05-02T08:56:12.612Z,19.52
2017-05-02T08:57:11.632Z,19.53
2017-05-02T08:58:12.596Z,19.59
2017-05-02T08:59:08.954Z,19.54
2017-05-02T09:00:12.521Z,19.56
2017-05-02T09:01:12.497Z,19.57
2017-05-02T09:02:11.176Z,19.57
2017-05-02T09:03:12.827Z,20.11
2017-05-02T09:04:12.835Z,20.19
2017-05-02T09:05:10.793Z,20.21
2017-05-02T09:06:10.884Z,20.23
2017-05-02T09:07:12.392Z,20.24
2017-05-02T09:08:13.522Z,20.26
2017-05-02T09:09:12.445Z,20.27
2017-05-02T09:10:11.130Z,20.27
2017-05-02T09:11:11.614Z,19.75
2017-05-02T09:12:11.811Z,19.71
2017-05-02T09:13:13.232Z,19.76
2017-05-02T09:14:12.531Z,19.68
2017-05-02T09:15:13.337Z,19.76
2017-05-02T09:16:14.891Z,20.22
2017-05-02T09:17:12.714Z,20.28
2017-05-02T09:18:18.790Z,20.31
2017-05-02T09:19:14.572Z,20.31
2017-05-02T09:20:12.523Z,19.97
2017-05-02T09:21:13.201Z,19.87
2017-05-02T09:22:12.373Z,19.76
2017-05-02T09:23:13.055Z,19.74
2017-05-02T09:24:12.885Z,19.74
2017-05-02T09:25:12.502Z,19.78
2017-05-02T09:26:12.755Z,19.73
2017-05-02T09:27:15.536Z,19.73
2017-05-02T09:28:14.433Z,19.74
2017-05-02T09:29:14.245Z,19.75
2017-05-02T09:30:12.418Z,19.76
2017-05-02T09:31:12.455Z,19.76
2017-05-02T09:32:12.679Z,19.77
2017-05-02T09:33:13.331Z,19.77
2017-05-02T09:34:12.425Z,19.78
2017-05-02T09:35:13.177Z,19.79
2017-05-02T09:36:13.280Z,19.80
2017-05-02T09:37:12.833Z,19.79
2017-05-02T09:38:14.954Z,19.80
2017-05-02T09:39:10.066Z,19.81
2017-05-02T09:40:13.353Z,19.82
2017-05-02T09:41:13.298Z,19.84
2017-05-02T09:42:12.382Z,19.82
2017-05-02T09:43:15.037Z,19.83
2017-05-02T09:44:12.598Z,19.89
2017-05-02T09:45:13.264Z,19.84
2017-05-02T09:46:13.349Z,19.85
2017-05-02T09:47:14.695Z,19.84
2017-05-02T09:48:12.394Z,19.90
2017-05-02T09:49:13.449Z,19.85
2017-05-02T09:50:09.087Z,19.84
2017-05-02T09:51:12.590Z,19.86
2017-05-02T09:52:11.706Z,19.86
2017-05-02T09:53:13.724Z,19.87
2017-05-02T09:54:12.211Z,19.90
2017-05-02T09:55:12.776Z,19.92
2017-05-02T09:56:12.472Z,19.93
2017-05-02T09:57:12.831Z,19.89
2017-05-02T09:58:11.915Z,19.88
2017-05-02T09:59:12.623Z,19.89
2017-05-02T10:00:11.595Z,19.90
2017-05-02T10:01:11.824Z,19.90
2017-05-02T10:02:11.973Z,19.90
2017-05-02T10:03:12.170Z,19.91
2017-05-02T10:04:12.325Z,19.92
2017-05-02T10:05:11.274Z,19.91
2017-05-02T10:06:10.392Z,19.91
2017-05-02T10:07:12.647Z,19.92
2017-05-02T10:08:11.754Z,19.92
2017-05-02T10:09:11.854Z,19.93
2017-05-02T10:10:11.925Z,19.93
2017-05-02T10:11:12.200Z,19.93
2017-05-02T10:12:12.841Z,19.93
2017-05-02T10:13:12.887Z,19.93
2017-05-02T10:14:11.805Z,19.93
2017-05-02T10:15:13.807Z,19.94
2017-05-02T10:16:11.762Z,19.95
2017-05-02T10:17:12.041Z,19.95
2017-05-02T10:18:12.223Z,19.95
2017-05-02T10:19:13.107Z,19.94
2017-05-02T10:20:12.197Z,19.95
2017-05-02T10:21:12.401Z,19.95
2017-05-02T10:22:12.486Z,19.96
2017-05-02T10:23:12.856Z,19.96
2017-05-02T10:24:11.704Z,19.97
2017-05-02T10:25:11.830Z,19.97
2017-05-02T10:26:11.823Z,19.97
2017-05-02T10:27:11.983Z,19.98
2017-05-02T10:28:12.716Z,20.05
2017-05-02T10:29:12.597Z,20.02
2017-05-02T10:30:10.261Z,19.98
2017-05-02T10:31:13.167Z,20.52
2017-05-02T10:32:12.722Z,20.57
2017-05-02T10:33:13.495Z,20.07
2017-05-02T10:34:13.185Z,20.03
2017-05-02T10:35:12.221Z,20.02
2017-05-02T10:36:12.223Z,20.01
2017-05-02T10:37:12.364Z,20.01
2017-05-02T10:38:13.110Z,20.01
2017-05-02T10:39:12.378Z,20.02
2017-05-02T10:40:12.609Z,20.02
2017-05-02T10:41:11.605Z,20.02
2017-05-02T10:42:12.187Z,20.02
2017-05-02T10:43:12.437Z,20.03
2017-05-02T10:44:12.529Z,20.02
2017-05-02T10:45:09.929Z,20.02
2017-05-02T10:46:12.216Z,20.03
2017-05-02T10:47:13.321Z,20.03
2017-05-02T10:48:12.766Z,20.11
2017-05-02T10:49:10.797Z,20.03
2017-05-02T10:50:14.649Z,20.57
2017-05-02T10:51:12.375Z,20.62
2017-05-02T10:52:10.832Z,20.13
2017-05-02T10:53:13.014Z,20.10
2017-05-02T10:54:12.245Z,20.09
2017-05-02T10:55:12.949Z,20.12
2017-05-02T10:56:12.855Z,20.07
2017-05-02T10:57:11.891Z,20.08
2017-05-02T10:58:12.605Z,20.14
2017-05-02T10:59:11.929Z,20.08
2017-05-02T11:00:10.790Z,20.07
2017-05-02T11:01:14.175Z,20.09
2017-05-02T11:02:13.134Z,20.07
2017-05-02T11:03:13.606Z,20.07
2017-05-02T11:04:12.358Z,20.10
2017-05-02T11:05:13.262Z,20.10
2017-05-02T11:06:11.041Z,20.09
2017-05-02T11:07:13.200Z,20.10
2017-05-02T11:08:12.674Z,20.61
2017-05-02T11:09:12.529Z,20.67
2017-05-02T11:10:12.781Z,20.70
2017-05-02T11:11:11.928Z,20.20
2017-05-02T11:12:12.901Z,20.15
2017-05-02T11:13:11.948Z,20.14
2017-05-02T11:14:12.238Z,20.12
2017-05-02T11:15:14.990Z,20.12
2017-05-02T11:16:12.250Z,20.12
2017-05-02T11:17:13.210Z,20.11
2017-05-02T11:18:12.410Z,20.12
2017-05-02T11:19:10.636Z,20.11
2017-05-02T11:20:11.825Z,20.65
2017-05-02T11:21:11.917Z,20.68
2017-05-02T11:22:12.817Z,20.71
2017-05-02T11:23:11.949Z,20.21
2017-05-02T11:24:12.230Z,20.17
2017-05-02T11:25:12.344Z,20.15
2017-05-02T11:26:13.035Z,20.18
2017-05-02T11:27:12.162Z,20.12
2017-05-02T11:28:12.930Z,20.13
2017-05-02T11:29:13.627Z,20.12
2017-05-02T11:30:14.505Z,20.13
2017-05-02T11:31:12.958Z,20.20
2017-05-02T11:32:12.596Z,20.19
2017-05-02T11:33:12.223Z,20.18
2017-05-02T11:34:12.850Z,20.13
2017-05-02T11:35:12.728Z,20.17
2017-05-02T11:36:11.932Z,20.14
2017-05-02T11:37:12.060Z,20.13
2017-05-02T11:38:12.699Z,20.18
2017-05-02T11:39:11.796Z,20.14
2017-05-02T11:40:10.731Z,20.13
2017-05-02T11:41:10.673Z,20.12
2017-05-02T11:42:12.528Z,20.16
2017-05-02T11:43:13.413Z,20.13
2017-05-02T11:44:13.335Z,20.13
2017-05-02T11:45:13.174Z,20.13
2017-05-02T11:46:14.893Z,20.14
2017-05-02T11:47:12.084Z,20.14
2017-05-02T11:48:13.003Z,20.16
2017-05-02T11:49:14.674Z,20.14
2017-05-02T11:50:11.675Z,20.14
2017-05-02T11:51:12.434Z,20.16
2017-05-02T11:52:12.567Z,20.16
2017-05-02T11:53:14.023Z,20.15
2017-05-02T11:54:10.122Z,20.13
2017-05-02T11:55:13.679Z,20.33
2017-05-02T11:56:12.424Z,20.25
2017-05-02T11:57:13.026Z,20.17
2017-05-02T11:58:13.057Z,20.17
2017-05-02T11:59:12.929Z,20.22
2017-05-02T12:00:12.406Z,20.18
2017-05-02T12:01:12.838Z,20.22
2017-05-02T12:02:12.524Z,20.14
2017-05-02T12:03:13.438Z,20.14
2017-05-02T12:04:12.606Z,20.13
2017-05-02T12:05:12.390Z,20.13
2017-05-02T12:06:12.600Z,20.16
2017-05-02T12:07:12.618Z,20.17
2017-05-02T12:08:10.668Z,20.14
2017-05-02T12:09:12.344Z,20.68
2017-05-02T12:10:13.132Z,20.73
2017-05-02T12:11:12.830Z,20.74
2017-05-02T12:12:11.818Z,20.76
2017-05-02T12:13:12.457Z,20.79
2017-05-02T12:14:12.578Z,20.79
2017-05-02T12:15:12.072Z,20.45
2017-05-02T12:16:11.030Z,20.28
2017-05-02T12:17:13.296Z,20.22
2017-05-02T12:18:12.515Z,20.19
2017-05-02T12:19:13.340Z,20.17
2017-05-02T12:20:13.148Z,20.17
2017-05-02T12:21:12.416Z,20.17
2017-05-02T12:22:13.313Z,20.16
2017-05-02T12:23:12.568Z,20.16
2017-05-02T12:24:13.425Z,20.15
2017-05-02T12:25:14.497Z,20.16
2017-05-02T12:26:12.785Z,20.14
2017-05-02T12:27:10.833Z,20.14
2017-05-02T12:28:12.690Z,20.65
2017-05-02T12:29:11.862Z,20.39
2017-05-02T12:30:12.624Z,20.21
2017-05-02T12:31:12.431Z,20.16
2017-05-02T12:32:12.564Z,20.14
2017-05-02T12:33:12.220Z,20.18
2017-05-02T12:34:10.969Z,20.11
2017-05-02T12:35:13.179Z,20.11
2017-05-02T12:36:12.229Z,20.12
2017-05-02T12:37:12.880Z,20.12
2017-05-02T12:38:11.956Z,20.11
2017-05-02T12:39:12.745Z,20.12
2017-05-02T12:40:11.814Z,20.12
2017-05-02T12:41:12.630Z,20.12
2017-05-02T12:42:12.599Z,20.12
2017-05-02T12:43:11.755Z,20.12
2017-05-02T12:44:11.903Z,20.12
2017-05-02T12:45:12.140Z,20.12
2017-05-02T12:46:12.648Z,20.15
2017-05-02T12:47:11.714Z,20.12
2017-05-02T12:48:11.780Z,20.12
2017-05-02T12:49:12.055Z,20.12
2017-05-02T12:50:12.866Z,20.13
2017-05-02T12:51:12.986Z,20.11
2017-05-02T12:52:13.723Z,20.12